sensor_id;sensor_type;location;lat;lon;timestamp;P1;durP1;ratioP1;P2;durP2;ratioP2
22138;SDS011;25815;52.582;13.408;2023-06-22T00:01:09;11.75;;;10.55;;
22138;SDS011;25815;52.582;13.408;2023-06-22T00:03:35;12.65;;;10.60;;
22138;SDS011;25815;52.582;13.408;2023-06-22T00:06:01;11.85;;;10.65;;
22138;SDS011;25815;52.582;13.408;2023-06-22T00:08:27;11.38;;;10.27;;
22138;SDS011;25815;52.582;13.408;2023-06-22T00:10:52;11.88;;;10.65;;
22138;SDS011;25815;52.582;13.408;2023-06-22T00:13:18;12.25;;;10.65;;
22138;SDS011;25815;52.582;13.408;2023-06-22T00:15:44;12.10;;;10.88;;
22138;SDS011;25815;52.582;13.408;2023-06-22T00:18:10;10.38;;;9.38;;
22138;SDS011;25815;52.582;13.408;2023-06-22T00:20:38;11.25;;;10.02;;
22138;SDS011;25815;52.582;13.408;2023-06-22T00:23:04;10.57;;;9.57;;
22138;SDS011;25815;52.582;13.408;2023-06-22T00:25:37;10.57;;;9.57;;
22138;SDS011;25815;52.582;13.408;2023-06-22T00:28:05;11.75;;;10.50;;
22138;SDS011;25815;52.582;13.408;2023-06-22T00:30:31;14.68;;;10.70;;
22138;SDS011;25815;52.582;13.408;2023-06-22T00:32:57;11.02;;;9.90;;
22138;SDS011;25815;52.582;13.408;2023-06-22T00:35:23;11.07;;;9.98;;
22138;SDS011;25815;52.582;13.408;2023-06-22T00:37:53;11.80;;;10.27;;
22138;SDS011;25815;52.582;13.408;2023-06-22T00:40:25;11.70;;;10.50;;
22138;SDS011;25815;52.582;13.408;2023-06-22T00:42:51;11.35;;;10.23;;
22138;SDS011;25815;52.582;13.408;2023-06-22T00:45:17;12.52;;;10.75;;
22138;SDS011;25815;52.582;13.408;2023-06-22T00:47:43;11.82;;;10.55;;
22138;SDS011;25815;52.582;13.408;2023-06-22T00:50:09;11.88;;;10.77;;
22138;SDS011;25815;52.582;13.408;2023-06-22T00:52:43;11.77;;;10.57;;
22138;SDS011;25815;52.582;13.408;2023-06-22T00:55:11;14.23;;;10.68;;
22138;SDS011;25815;52.582;13.408;2023-06-22T00:57:37;12.23;;;10.98;;
22138;SDS011;25815;52.582;13.408;2023-06-22T01:00:03;11.75;;;10.65;;
22138;SDS011;25815;52.582;13.408;2023-06-22T01:02:36;11.50;;;10.30;;
22138;SDS011;25815;52.582;13.408;2023-06-22T01:05:03;12.23;;;10.77;;
22138;SDS011;25815;52.582;13.408;2023-06-22T01:07:31;11.50;;;10.40;;
22138;SDS011;25815;52.582;13.408;2023-06-22T01:10:21;11.38;;;10.18;;
22138;SDS011;25815;52.582;13.408;2023-06-22T01:12:53;12.13;;;10.93;;
22138;SDS011;25815;52.582;13.408;2023-06-22T01:16:07;14.15;;;10.30;;
22138;SDS011;25815;52.582;13.408;2023-06-22T01:18:07;11.82;;;10.60;;
22138;SDS011;25815;52.582;13.408;2023-06-22T01:20:34;13.60;;;10.50;;
22138;SDS011;25815;52.582;13.408;2023-06-22T01:25:40;10.77;;;9.68;;
22138;SDS011;25815;52.582;13.408;2023-06-22T01:30:53;11.05;;;9.70;;
22138;SDS011;25815;52.582;13.408;2023-06-22T01:33:28;11.50;;;10.30;;
22138;SDS011;25815;52.582;13.408;2023-06-22T01:35:54;10.75;;;9.65;;
22138;SDS011;25815;52.582;13.408;2023-06-22T01:38:20;11.63;;;10.43;;
22138;SDS011;25815;52.582;13.408;2023-06-22T01:40:47;11.90;;;10.70;;
22138;SDS011;25815;52.582;13.408;2023-06-22T01:43:13;11.77;;;10.65;;
22138;SDS011;25815;52.582;13.408;2023-06-22T01:45:39;11.63;;;10.45;;
22138;SDS011;25815;52.582;13.408;2023-06-22T01:48:05;13.70;;;10.52;;
22138;SDS011;25815;52.582;13.408;2023-06-22T01:50:31;16.48;;;10.77;;
22138;SDS011;25815;52.582;13.408;2023-06-22T01:52:57;11.40;;;10.20;;
22138;SDS011;25815;52.582;13.408;2023-06-22T01:55:23;11.57;;;10.38;;
22138;SDS011;25815;52.582;13.408;2023-06-22T01:57:49;12.25;;;10.40;;
22138;SDS011;25815;52.582;13.408;2023-06-22T02:00:18;10.60;;;9.68;;
22138;SDS011;25815;52.582;13.408;2023-06-22T02:03:03;11.68;;;10.45;;
22138;SDS011;25815;52.582;13.408;2023-06-22T02:05:34;11.20;;;9.88;;
22138;SDS011;25815;52.582;13.408;2023-06-22T02:08:07;11.55;;;10.45;;
22138;SDS011;25815;52.582;13.408;2023-06-22T02:10:34;11.82;;;10.63;;
22138;SDS011;25815;52.582;13.408;2023-06-22T02:13:01;11.52;;;10.32;;
22138;SDS011;25815;52.582;13.408;2023-06-22T02:15:28;11.57;;;10.45;;
22138;SDS011;25815;52.582;13.408;2023-06-22T02:17:54;11.35;;;10.25;;
22138;SDS011;25815;52.582;13.408;2023-06-22T02:20:20;12.02;;;10.48;;
22138;SDS011;25815;52.582;13.408;2023-06-22T02:22:46;11.02;;;9.90;;
22138;SDS011;25815;52.582;13.408;2023-06-22T02:25:12;13.27;;;11.00;;
22138;SDS011;25815;52.582;13.408;2023-06-22T02:27:38;12.30;;;11.10;;
22138;SDS011;25815;52.582;13.408;2023-06-22T02:30:06;12.45;;;11.25;;
22138;SDS011;25815;52.582;13.408;2023-06-22T02:32:32;12.95;;;11.23;;
22138;SDS011;25815;52.582;13.408;2023-06-22T02:35:00;14.18;;;12.10;;
22138;SDS011;25815;52.582;13.408;2023-06-22T02:37:29;14.45;;;11.20;;
22138;SDS011;25815;52.582;13.408;2023-06-22T02:39:55;12.05;;;10.85;;
22138;SDS011;25815;52.582;13.408;2023-06-22T02:42:21;11.95;;;10.82;;
22138;SDS011;25815;52.582;13.408;2023-06-22T02:44:47;12.98;;;11.60;;
22138;SDS011;25815;52.582;13.408;2023-06-22T02:47:13;13.43;;;12.13;;
22138;SDS011;25815;52.582;13.408;2023-06-22T02:49:39;12.00;;;10.80;;
22138;SDS011;25815;52.582;13.408;2023-06-22T02:52:05;12.40;;;11.20;;
22138;SDS011;25815;52.582;13.408;2023-06-22T02:54:31;13.43;;;10.68;;
22138;SDS011;25815;52.582;13.408;2023-06-22T02:56:58;13.07;;;11.55;;
22138;SDS011;25815;52.582;13.408;2023-06-22T02:59:27;13.27;;;11.98;;
22138;SDS011;25815;52.582;13.408;2023-06-22T03:01:53;14.63;;;13.10;;
22138;SDS011;25815;52.582;13.408;2023-06-22T03:04:19;15.05;;;13.52;;
22138;SDS011;25815;52.582;13.408;2023-06-22T03:06:45;15.40;;;12.57;;
22138;SDS011;25815;52.582;13.408;2023-06-22T03:09:15;14.77;;;13.30;;
22138;SDS011;25815;52.582;13.408;2023-06-22T03:11:41;15.50;;;13.27;;
22138;SDS011;25815;52.582;13.408;2023-06-22T03:14:07;14.35;;;12.85;;
22138;SDS011;25815;52.582;13.408;2023-06-22T03:16:33;14.70;;;13.15;;
22138;SDS011;25815;52.582;13.408;2023-06-22T03:18:59;17.75;;;12.90;;
22138;SDS011;25815;52.582;13.408;2023-06-22T03:21:27;15.07;;;13.52;;
22138;SDS011;25815;52.582;13.408;2023-06-22T03:23:53;15.73;;;14.05;;
22138;SDS011;25815;52.582;13.408;2023-06-22T03:26:19;15.88;;;13.65;;
22138;SDS011;25815;52.582;13.408;2023-06-22T03:28:45;15.15;;;13.68;;
22138;SDS011;25815;52.582;13.408;2023-06-22T03:31:11;19.88;;;14.50;;
22138;SDS011;25815;52.582;13.408;2023-06-22T03:33:37;16.52;;;13.88;;
22138;SDS011;25815;52.582;13.408;2023-06-22T03:36:03;16.63;;;14.85;;
22138;SDS011;25815;52.582;13.408;2023-06-22T03:38:29;18.15;;;14.90;;
22138;SDS011;25815;52.582;13.408;2023-06-22T03:40:55;16.38;;;13.65;;
22138;SDS011;25815;52.582;13.408;2023-06-22T03:43:21;15.95;;;14.35;;
22138;SDS011;25815;52.582;13.408;2023-06-22T03:45:47;16.88;;;15.10;;
22138;SDS011;25815;52.582;13.408;2023-06-22T03:48:13;17.92;;;13.88;;
22138;SDS011;25815;52.582;13.408;2023-06-22T03:50:38;15.00;;;12.88;;
22138;SDS011;25815;52.582;13.408;2023-06-22T03:53:04;17.10;;;13.88;;
22138;SDS011;25815;52.582;13.408;2023-06-22T03:55:30;15.02;;;13.45;;
22138;SDS011;25815;52.582;13.408;2023-06-22T03:57:56;16.63;;;13.23;;
22138;SDS011;25815;52.582;13.408;2023-06-22T04:00:23;15.82;;;14.13;;
22138;SDS011;25815;52.582;13.408;2023-06-22T04:02:49;16.75;;;12.95;;
22138;SDS011;25815;52.582;13.408;2023-06-22T04:05:15;15.02;;;13.10;;
22138;SDS011;25815;52.582;13.408;2023-06-22T04:07:44;15.57;;;12.70;;
22138;SDS011;25815;52.582;13.408;2023-06-22T04:10:09;16.63;;;12.65;;
22138;SDS011;25815;52.582;13.408;2023-06-22T04:12:35;15.52;;;12.65;;
22138;SDS011;25815;52.582;13.408;2023-06-22T04:15:01;14.60;;;12.40;;
22138;SDS011;25815;52.582;13.408;2023-06-22T04:17:27;12.80;;;11.45;;
22138;SDS011;25815;52.582;13.408;2023-06-22T04:19:53;13.27;;;10.95;;
22138;SDS011;25815;52.582;13.408;2023-06-22T04:22:19;12.15;;;10.38;;
22138;SDS011;25815;52.582;13.408;2023-06-22T04:24:45;12.07;;;10.40;;
22138;SDS011;25815;52.582;13.408;2023-06-22T04:27:11;11.68;;;10.00;;
22138;SDS011;25815;52.582;13.408;2023-06-22T04:29:37;13.50;;;10.80;;
22138;SDS011;25815;52.582;13.408;2023-06-22T04:32:08;12.93;;;10.77;;
22138;SDS011;25815;52.582;13.408;2023-06-22T04:34:37;15.10;;;10.10;;
22138;SDS011;25815;52.582;13.408;2023-06-22T04:37:03;10.63;;;9.50;;
22138;SDS011;25815;52.582;13.408;2023-06-22T04:39:29;14.27;;;10.05;;
22138;SDS011;25815;52.582;13.408;2023-06-22T04:41:56;12.60;;;9.73;;
22138;SDS011;25815;52.582;13.408;2023-06-22T04:44:25;12.45;;;9.93;;
22138;SDS011;25815;52.582;13.408;2023-06-22T04:46:52;12.20;;;10.32;;
22138;SDS011;25815;52.582;13.408;2023-06-22T04:49:33;14.88;;;9.65;;
22138;SDS011;25815;52.582;13.408;2023-06-22T04:54:28;10.30;;;8.95;;
22138;SDS011;25815;52.582;13.408;2023-06-22T04:56:54;11.57;;;8.82;;
22138;SDS011;25815;52.582;13.408;2023-06-22T04:59:23;9.30;;;8.05;;
22138;SDS011;25815;52.582;13.408;2023-06-22T05:02:00;9.95;;;8.95;;
22138;SDS011;25815;52.582;13.408;2023-06-22T05:04:27;11.25;;;7.90;;
22138;SDS011;25815;52.582;13.408;2023-06-22T05:06:56;10.20;;;7.95;;
22138;SDS011;25815;52.582;13.408;2023-06-22T05:09:22;10.10;;;8.63;;
22138;SDS011;25815;52.582;13.408;2023-06-22T05:11:48;11.05;;;7.97;;
22138;SDS011;25815;52.582;13.408;2023-06-22T05:14:14;9.40;;;7.97;;
22138;SDS011;25815;52.582;13.408;2023-06-22T05:16:41;10.93;;;7.85;;
22138;SDS011;25815;52.582;13.408;2023-06-22T05:19:07;9.15;;;7.78;;
22138;SDS011;25815;52.582;13.408;2023-06-22T05:21:33;9.82;;;6.82;;
22138;SDS011;25815;52.582;13.408;2023-06-22T05:23:59;9.65;;;6.15;;
22138;SDS011;25815;52.582;13.408;2023-06-22T05:26:27;7.88;;;6.38;;
22138;SDS011;25815;52.582;13.408;2023-06-22T05:28:53;8.57;;;6.32;;
22138;SDS011;25815;52.582;13.408;2023-06-22T05:31:19;8.80;;;6.65;;
22138;SDS011;25815;52.582;13.408;2023-06-22T05:33:45;8.75;;;6.00;;
22138;SDS011;25815;52.582;13.408;2023-06-22T05:36:12;8.43;;;5.88;;
22138;SDS011;25815;52.582;13.408;2023-06-22T05:38:38;6.38;;;4.85;;
22138;SDS011;25815;52.582;13.408;2023-06-22T05:41:04;6.43;;;4.97;;
22138;SDS011;25815;52.582;13.408;2023-06-22T05:43:30;5.82;;;4.00;;
22138;SDS011;25815;52.582;13.408;2023-06-22T05:45:56;6.85;;;4.00;;
22138;SDS011;25815;52.582;13.408;2023-06-22T05:48:23;4.65;;;4.15;;
22138;SDS011;25815;52.582;13.408;2023-06-22T05:50:49;5.38;;;3.80;;
22138;SDS011;25815;52.582;13.408;2023-06-22T05:53:15;5.68;;;3.60;;
22138;SDS011;25815;52.582;13.408;2023-06-22T05:55:41;6.15;;;3.55;;
22138;SDS011;25815;52.582;13.408;2023-06-22T05:58:07;5.20;;;3.75;;
22138;SDS011;25815;52.582;13.408;2023-06-22T06:00:34;4.70;;;3.33;;
22138;SDS011;25815;52.582;13.408;2023-06-22T06:03:00;5.05;;;3.63;;
22138;SDS011;25815;52.582;13.408;2023-06-22T06:05:37;4.63;;;3.40;;
22138;SDS011;25815;52.582;13.408;2023-06-22T06:08:04;5.40;;;3.70;;
22138;SDS011;25815;52.582;13.408;2023-06-22T06:10:34;5.13;;;3.55;;
22138;SDS011;25815;52.582;13.408;2023-06-22T06:13:01;5.38;;;3.50;;
22138;SDS011;25815;52.582;13.408;2023-06-22T06:15:27;5.18;;;3.70;;
22138;SDS011;25815;52.582;13.408;2023-06-22T06:17:53;6.10;;;3.53;;
22138;SDS011;25815;52.582;13.408;2023-06-22T06:20:20;5.70;;;3.28;;
22138;SDS011;25815;52.582;13.408;2023-06-22T06:22:46;5.10;;;3.42;;
22138;SDS011;25815;52.582;13.408;2023-06-22T06:25:12;3.70;;;3.40;;
22138;SDS011;25815;52.582;13.408;2023-06-22T06:27:44;6.35;;;3.70;;
22138;SDS011;25815;52.582;13.408;2023-06-22T06:30:10;4.80;;;3.88;;
22138;SDS011;25815;52.582;13.408;2023-06-22T06:32:36;5.63;;;3.58;;
22138;SDS011;25815;52.582;13.408;2023-06-22T06:35:03;7.47;;;3.45;;
22138;SDS011;25815;52.582;13.408;2023-06-22T06:37:29;5.85;;;3.65;;
22138;SDS011;25815;52.582;13.408;2023-06-22T06:39:55;4.80;;;3.20;;
22138;SDS011;25815;52.582;13.408;2023-06-22T06:42:21;4.25;;;3.40;;
22138;SDS011;25815;52.582;13.408;2023-06-22T06:44:49;4.28;;;3.20;;
22138;SDS011;25815;52.582;13.408;2023-06-22T06:47:15;5.90;;;3.40;;
22138;SDS011;25815;52.582;13.408;2023-06-22T06:49:42;4.35;;;3.08;;
22138;SDS011;25815;52.582;13.408;2023-06-22T06:52:08;4.47;;;3.70;;
22138;SDS011;25815;52.582;13.408;2023-06-22T06:54:33;4.80;;;3.22;;
22138;SDS011;25815;52.582;13.408;2023-06-22T06:56:59;6.07;;;3.33;;
22138;SDS011;25815;52.582;13.408;2023-06-22T06:59:27;5.15;;;3.15;;
22138;SDS011;25815;52.582;13.408;2023-06-22T07:01:55;4.50;;;2.95;;
22138;SDS011;25815;52.582;13.408;2023-06-22T07:04:21;3.78;;;2.67;;
22138;SDS011;25815;52.582;13.408;2023-06-22T07:06:47;3.35;;;2.70;;
22138;SDS011;25815;52.582;13.408;2023-06-22T07:09:13;4.80;;;3.03;;
22138;SDS011;25815;52.582;13.408;2023-06-22T07:11:39;3.72;;;2.78;;
22138;SDS011;25815;52.582;13.408;2023-06-22T07:14:04;4.72;;;2.45;;
22138;SDS011;25815;52.582;13.408;2023-06-22T07:16:30;3.08;;;2.67;;
22138;SDS011;25815;52.582;13.408;2023-06-22T07:18:57;3.25;;;2.60;;
22138;SDS011;25815;52.582;13.408;2023-06-22T07:21:23;3.08;;;2.55;;
22138;SDS011;25815;52.582;13.408;2023-06-22T07:23:49;4.30;;;2.70;;
22138;SDS011;25815;52.582;13.408;2023-06-22T07:26:15;2.95;;;2.30;;
22138;SDS011;25815;52.582;13.408;2023-06-22T07:28:41;4.03;;;2.38;;
22138;SDS011;25815;52.582;13.408;2023-06-22T07:31:07;5.28;;;2.63;;
22138;SDS011;25815;52.582;13.408;2023-06-22T07:33:33;4.07;;;2.88;;
22138;SDS011;25815;52.582;13.408;2023-06-22T07:35:59;3.53;;;2.78;;
22138;SDS011;25815;52.582;13.408;2023-06-22T07:38:25;5.65;;;2.50;;
22138;SDS011;25815;52.582;13.408;2023-06-22T07:40:51;6.20;;;2.50;;
22138;SDS011;25815;52.582;13.408;2023-06-22T07:43:18;2.88;;;2.40;;
22138;SDS011;25815;52.582;13.408;2023-06-22T07:45:53;4.38;;;2.05;;
22138;SDS011;25815;52.582;13.408;2023-06-22T07:48:22;4.07;;;2.35;;
22138;SDS011;25815;52.582;13.408;2023-06-22T07:50:48;5.00;;;3.08;;
22138;SDS011;25815;52.582;13.408;2023-06-22T07:53:15;3.75;;;2.17;;
22138;SDS011;25815;52.582;13.408;2023-06-22T07:55:41;4.25;;;2.20;;
22138;SDS011;25815;52.582;13.408;2023-06-22T07:58:07;4.60;;;2.13;;
22138;SDS011;25815;52.582;13.408;2023-06-22T08:00:33;5.15;;;2.00;;
22138;SDS011;25815;52.582;13.408;2023-06-22T08:02:59;3.85;;;2.13;;
22138;SDS011;25815;52.582;13.408;2023-06-22T08:05:30;2.33;;;1.65;;
22138;SDS011;25815;52.582;13.408;2023-06-22T08:07:55;6.22;;;2.10;;
22138;SDS011;25815;52.582;13.408;2023-06-22T08:10:21;4.68;;;2.10;;
22138;SDS011;25815;52.582;13.408;2023-06-22T08:12:47;2.70;;;1.63;;
22138;SDS011;25815;52.582;13.408;2023-06-22T08:15:13;2.70;;;2.10;;
22138;SDS011;25815;52.582;13.408;2023-06-22T08:17:39;3.15;;;2.28;;
22138;SDS011;25815;52.582;13.408;2023-06-22T08:20:07;2.10;;;1.90;;
22138;SDS011;25815;52.582;13.408;2023-06-22T08:22:40;3.30;;;1.98;;
22138;SDS011;25815;52.582;13.408;2023-06-22T08:25:06;2.70;;;2.35;;
22138;SDS011;25815;52.582;13.408;2023-06-22T08:27:32;2.67;;;1.67;;
22138;SDS011;25815;52.582;13.408;2023-06-22T08:29:59;3.25;;;2.15;;
22138;SDS011;25815;52.582;13.408;2023-06-22T08:32:25;3.25;;;1.70;;
22138;SDS011;25815;52.582;13.408;2023-06-22T08:34:52;3.50;;;2.20;;
22138;SDS011;25815;52.582;13.408;2023-06-22T08:37:18;2.83;;;2.05;;
22138;SDS011;25815;52.582;13.408;2023-06-22T08:39:44;3.85;;;2.15;;
22138;SDS011;25815;52.582;13.408;2023-06-22T08:42:11;2.60;;;1.92;;
22138;SDS011;25815;52.582;13.408;2023-06-22T08:44:37;2.60;;;1.90;;
22138;SDS011;25815;52.582;13.408;2023-06-22T08:47:03;2.38;;;1.80;;
22138;SDS011;25815;52.582;13.408;2023-06-22T08:49:29;3.65;;;1.92;;
22138;SDS011;25815;52.582;13.408;2023-06-22T08:51:55;4.80;;;1.90;;
22138;SDS011;25815;52.582;13.408;2023-06-22T08:54:21;2.67;;;2.00;;
22138;SDS011;25815;52.582;13.408;2023-06-22T08:56:47;3.13;;;1.85;;
22138;SDS011;25815;52.582;13.408;2023-06-22T08:59:13;2.65;;;2.00;;
22138;SDS011;25815;52.582;13.408;2023-06-22T09:01:39;4.28;;;2.10;;
22138;SDS011;25815;52.582;13.408;2023-06-22T09:04:05;3.05;;;2.17;;
22138;SDS011;25815;52.582;13.408;2023-06-22T09:06:34;3.58;;;2.00;;
22138;SDS011;25815;52.582;13.408;2023-06-22T09:09:00;3.00;;;2.22;;
22138;SDS011;25815;52.582;13.408;2023-06-22T09:11:26;3.45;;;2.20;;
22138;SDS011;25815;52.582;13.408;2023-06-22T09:13:52;3.15;;;2.20;;
22138;SDS011;25815;52.582;13.408;2023-06-22T09:16:18;4.28;;;2.50;;
22138;SDS011;25815;52.582;13.408;2023-06-22T09:18:47;3.70;;;2.20;;
22138;SDS011;25815;52.582;13.408;2023-06-22T09:23:40;5.22;;;2.65;;
22138;SDS011;25815;52.582;13.408;2023-06-22T09:26:05;3.40;;;2.50;;
22138;SDS011;25815;52.582;13.408;2023-06-22T09:28:31;2.70;;;2.35;;
22138;SDS011;25815;52.582;13.408;2023-06-22T09:30:58;5.00;;;2.90;;
22138;SDS011;25815;52.582;13.408;2023-06-22T09:33:25;5.53;;;2.53;;
22138;SDS011;25815;52.582;13.408;2023-06-22T09:35:51;3.33;;;2.60;;
22138;SDS011;25815;52.582;13.408;2023-06-22T09:38:17;6.20;;;2.40;;
22138;SDS011;25815;52.582;13.408;2023-06-22T09:40:43;4.45;;;2.58;;
22138;SDS011;25815;52.582;13.408;2023-06-22T09:43:09;4.40;;;2.80;;
22138;SDS011;25815;52.582;13.408;2023-06-22T09:45:35;3.28;;;2.80;;
22138;SDS011;25815;52.582;13.408;2023-06-22T09:48:01;4.65;;;2.65;;
22138;SDS011;25815;52.582;13.408;2023-06-22T09:50:26;3.67;;;2.88;;
22138;SDS011;25815;52.582;13.408;2023-06-22T09:52:52;2.97;;;2.58;;
22138;SDS011;25815;52.582;13.408;2023-06-22T09:55:22;4.43;;;2.60;;
22138;SDS011;25815;52.582;13.408;2023-06-22T09:57:48;3.47;;;2.67;;
22138;SDS011;25815;52.582;13.408;2023-06-22T10:00:15;5.03;;;2.92;;
22138;SDS011;25815;52.582;13.408;2023-06-22T10:02:42;5.28;;;2.90;;
22138;SDS011;25815;52.582;13.408;2023-06-22T10:05:08;3.35;;;2.40;;
22138;SDS011;25815;52.582;13.408;2023-06-22T10:07:34;3.90;;;2.88;;
22138;SDS011;25815;52.582;13.408;2023-06-22T10:10:04;5.75;;;2.90;;
22138;SDS011;25815;52.582;13.408;2023-06-22T10:12:30;4.35;;;2.75;;
22138;SDS011;25815;52.582;13.408;2023-06-22T10:14:56;5.38;;;3.10;;
22138;SDS011;25815;52.582;13.408;2023-06-22T10:17:22;3.50;;;2.60;;
22138;SDS011;25815;52.582;13.408;2023-06-22T10:19:48;4.68;;;2.75;;
22138;SDS011;25815;52.582;13.408;2023-06-22T10:22:14;3.83;;;2.55;;
22138;SDS011;25815;52.582;13.408;2023-06-22T10:24:40;3.78;;;2.90;;
22138;SDS011;25815;52.582;13.408;2023-06-22T10:29:35;3.17;;;2.58;;
22138;SDS011;25815;52.582;13.408;2023-06-22T10:32:01;5.20;;;2.80;;
22138;SDS011;25815;52.582;13.408;2023-06-22T10:34:27;3.72;;;2.70;;
22138;SDS011;25815;52.582;13.408;2023-06-22T10:36:53;3.95;;;2.70;;
22138;SDS011;25815;52.582;13.408;2023-06-22T10:39:19;3.25;;;2.58;;
22138;SDS011;25815;52.582;13.408;2023-06-22T10:41:45;4.43;;;2.55;;
22138;SDS011;25815;52.582;13.408;2023-06-22T10:44:11;9.18;;;2.65;;
22138;SDS011;25815;52.582;13.408;2023-06-22T10:46:37;3.80;;;2.40;;
22138;SDS011;25815;52.582;13.408;2023-06-22T10:49:03;4.00;;;2.47;;
22138;SDS011;25815;52.582;13.408;2023-06-22T10:51:29;5.60;;;2.42;;
22138;SDS011;25815;52.582;13.408;2023-06-22T10:53:56;3.03;;;2.60;;
22138;SDS011;25815;52.582;13.408;2023-06-22T10:56:22;3.47;;;2.67;;
22138;SDS011;25815;52.582;13.408;2023-06-22T10:58:48;5.32;;;3.00;;
22138;SDS011;25815;52.582;13.408;2023-06-22T11:01:14;3.13;;;2.50;;
22138;SDS011;25815;52.582;13.408;2023-06-22T11:03:40;6.07;;;2.83;;
22138;SDS011;25815;52.582;13.408;2023-06-22T11:06:06;3.25;;;2.40;;
22138;SDS011;25815;52.582;13.408;2023-06-22T11:08:32;3.75;;;2.67;;
22138;SDS011;25815;52.582;13.408;2023-06-22T11:10:58;2.90;;;2.60;;
22138;SDS011;25815;52.582;13.408;2023-06-22T11:13:24;3.10;;;2.80;;
22138;SDS011;25815;52.582;13.408;2023-06-22T11:15:50;4.60;;;3.40;;
22138;SDS011;25815;52.582;13.408;2023-06-22T11:18:16;3.35;;;3.05;;
22138;SDS011;25815;52.582;13.408;2023-06-22T11:20:42;3.03;;;2.55;;
22138;SDS011;25815;52.582;13.408;2023-06-22T11:23:08;6.10;;;2.90;;
22138;SDS011;25815;52.582;13.408;2023-06-22T11:25:34;3.20;;;2.60;;
22138;SDS011;25815;52.582;13.408;2023-06-22T11:28:01;3.95;;;2.47;;
22138;SDS011;25815;52.582;13.408;2023-06-22T11:30:27;4.63;;;2.63;;
22138;SDS011;25815;52.582;13.408;2023-06-22T11:32:53;3.00;;;2.40;;
22138;SDS011;25815;52.582;13.408;2023-06-22T11:35:19;2.83;;;2.30;;
22138;SDS011;25815;52.582;13.408;2023-06-22T11:37:45;2.97;;;2.67;;
22138;SDS011;25815;52.582;13.408;2023-06-22T11:40:11;3.70;;;2.80;;
22138;SDS011;25815;52.582;13.408;2023-06-22T11:42:37;4.30;;;2.70;;
22138;SDS011;25815;52.582;13.408;2023-06-22T11:45:04;2.70;;;2.40;;
22138;SDS011;25815;52.582;13.408;2023-06-22T11:47:31;5.33;;;2.97;;
22138;SDS011;25815;52.582;13.408;2023-06-22T11:49:57;2.95;;;2.63;;
22138;SDS011;25815;52.582;13.408;2023-06-22T11:52:23;3.63;;;2.92;;
22138;SDS011;25815;52.582;13.408;2023-06-22T11:54:49;2.97;;;2.50;;
22138;SDS011;25815;52.582;13.408;2023-06-22T11:57:15;3.42;;;3.13;;
22138;SDS011;25815;52.582;13.408;2023-06-22T11:59:41;3.35;;;3.05;;
22138;SDS011;25815;52.582;13.408;2023-06-22T12:02:07;3.50;;;2.67;;
22138;SDS011;25815;52.582;13.408;2023-06-22T12:04:34;3.75;;;2.58;;
22138;SDS011;25815;52.582;13.408;2023-06-22T12:07:00;3.28;;;2.60;;
22138;SDS011;25815;52.582;13.408;2023-06-22T12:09:27;3.10;;;2.80;;
22138;SDS011;25815;52.582;13.408;2023-06-22T12:11:53;3.40;;;2.80;;
22138;SDS011;25815;52.582;13.408;2023-06-22T12:14:19;5.97;;;3.08;;
22138;SDS011;25815;52.582;13.408;2023-06-22T12:16:45;3.35;;;3.00;;
22138;SDS011;25815;52.582;13.408;2023-06-22T12:19:11;6.10;;;3.10;;
22138;SDS011;25815;52.582;13.408;2023-06-22T12:21:37;3.28;;;2.83;;
22138;SDS011;25815;52.582;13.408;2023-06-22T12:24:05;3.83;;;2.95;;
22138;SDS011;25815;52.582;13.408;2023-06-22T12:26:31;4.72;;;2.97;;
22138;SDS011;25815;52.582;13.408;2023-06-22T12:28:57;3.88;;;2.72;;
22138;SDS011;25815;52.582;13.408;2023-06-22T12:31:23;3.42;;;3.08;;
22138;SDS011;25815;52.582;13.408;2023-06-22T12:33:49;3.65;;;3.05;;
22138;SDS011;25815;52.582;13.408;2023-06-22T12:36:15;4.70;;;2.92;;
22138;SDS011;25815;52.582;13.408;2023-06-22T12:38:41;4.95;;;2.58;;
22138;SDS011;25815;52.582;13.408;2023-06-22T12:41:07;3.35;;;2.88;;
22138;SDS011;25815;52.582;13.408;2023-06-22T12:43:33;2.85;;;2.60;;
22138;SDS011;25815;52.582;13.408;2023-06-22T12:45:59;3.75;;;2.63;;
22138;SDS011;25815;52.582;13.408;2023-06-22T12:48:26;5.20;;;3.08;;
22138;SDS011;25815;52.582;13.408;2023-06-22T12:50:52;4.38;;;3.10;;
22138;SDS011;25815;52.582;13.408;2023-06-22T12:53:18;3.63;;;3.10;;
22138;SDS011;25815;52.582;13.408;2023-06-22T12:55:44;4.60;;;3.55;;
22138;SDS011;25815;52.582;13.408;2023-06-22T12:58:10;4.88;;;3.63;;
22138;SDS011;25815;52.582;13.408;2023-06-22T13:00:36;5.25;;;3.30;;
22138;SDS011;25815;52.582;13.408;2023-06-22T13:03:02;3.38;;;3.08;;
22138;SDS011;25815;52.582;13.408;2023-06-22T13:05:28;3.65;;;3.35;;
22138;SDS011;25815;52.582;13.408;2023-06-22T13:07:55;4.68;;;3.38;;
22138;SDS011;25815;52.582;13.408;2023-06-22T13:10:21;4.28;;;3.42;;
22138;SDS011;25815;52.582;13.408;2023-06-22T13:12:47;4.07;;;3.20;;
22138;SDS011;25815;52.582;13.408;2023-06-22T13:15:13;5.30;;;3.33;;
22138;SDS011;25815;52.582;13.408;2023-06-22T13:17:39;3.83;;;3.25;;
22138;SDS011;25815;52.582;13.408;2023-06-22T13:20:05;3.53;;;3.20;;
22138;SDS011;25815;52.582;13.408;2023-06-22T13:22:32;4.75;;;3.05;;
22138;SDS011;25815;52.582;13.408;2023-06-22T13:24:59;4.38;;;3.58;;
22138;SDS011;25815;52.582;13.408;2023-06-22T13:27:25;3.85;;;3.20;;
22138;SDS011;25815;52.582;13.408;2023-06-22T13:29:52;6.78;;;3.28;;
22138;SDS011;25815;52.582;13.408;2023-06-22T13:32:18;4.43;;;3.40;;
22138;SDS011;25815;52.582;13.408;2023-06-22T13:34:44;4.43;;;3.63;;
22138;SDS011;25815;52.582;13.408;2023-06-22T13:37:10;3.55;;;3.25;;
22138;SDS011;25815;52.582;13.408;2023-06-22T13:39:36;4.03;;;3.20;;
22138;SDS011;25815;52.582;13.408;2023-06-22T13:42:02;4.18;;;3.78;;
22138;SDS011;25815;52.582;13.408;2023-06-22T13:44:27;4.85;;;3.92;;
22138;SDS011;25815;52.582;13.408;2023-06-22T13:46:57;3.80;;;3.42;;
22138;SDS011;25815;52.582;13.408;2023-06-22T13:49:23;5.55;;;3.70;;
22138;SDS011;25815;52.582;13.408;2023-06-22T13:51:49;3.85;;;3.45;;
22138;SDS011;25815;52.582;13.408;2023-06-22T13:54:16;3.95;;;3.55;;
22138;SDS011;25815;52.582;13.408;2023-06-22T13:56:42;3.85;;;3.50;;
22138;SDS011;25815;52.582;13.408;2023-06-22T13:59:08;7.15;;;3.47;;
22138;SDS011;25815;52.582;13.408;2023-06-22T14:01:35;4.60;;;3.83;;
22138;SDS011;25815;52.582;13.408;2023-06-22T14:04:00;4.28;;;3.92;;
22138;SDS011;25815;52.582;13.408;2023-06-22T14:06:27;7.55;;;3.55;;
22138;SDS011;25815;52.582;13.408;2023-06-22T14:08:53;4.07;;;3.75;;
22138;SDS011;25815;52.582;13.408;2023-06-22T14:11:18;3.67;;;3.38;;
22138;SDS011;25815;52.582;13.408;2023-06-22T14:13:44;3.67;;;3.35;;
22138;SDS011;25815;52.582;13.408;2023-06-22T14:16:10;4.07;;;3.67;;
22138;SDS011;25815;52.582;13.408;2023-06-22T14:18:36;6.03;;;3.92;;
22138;SDS011;25815;52.582;13.408;2023-06-22T14:21:02;5.28;;;3.80;;
22138;SDS011;25815;52.582;13.408;2023-06-22T14:23:28;4.10;;;3.70;;
22138;SDS011;25815;52.582;13.408;2023-06-22T14:25:54;4.60;;;3.90;;
22138;SDS011;25815;52.582;13.408;2023-06-22T14:28:20;4.10;;;3.70;;
22138;SDS011;25815;52.582;13.408;2023-06-22T14:30:46;4.78;;;3.65;;
22138;SDS011;25815;52.582;13.408;2023-06-22T14:33:12;5.15;;;3.88;;
22138;SDS011;25815;52.582;13.408;2023-06-22T14:35:38;3.47;;;3.17;;